Time;durP1;ratioP1;P1;durP2;ratioP2;P2;SDS_P1;SDS_P2;PMS_P1;PMS_P2;Temp;Humidity;BMP_temperature;BMP_pressure;BME280_temperature;BME280_humidity;BME280_pressure;Samples;Min_cycle;Max_cycle;Signal;HPM_P1;HPM_P2
2022/09/15 00:00:11;;;;;;;1.88;1.30;;;12.90;99.90;;;;;;5021669;28;20048;-46
2022/09/15 00:02:37;;;;;;;7.80;2.03;;;12.90;99.90;;;;;;5040476;28;20037;-46
2022/09/15 00:05:03;;;;;;;2.92;1.40;;;13.00;99.90;;;;;;5040392;28;20468;-49
2022/09/15 00:07:28;;;;;;;1.88;1.30;;;13.00;99.90;;;;;;5040403;28;20487;-46
2022/09/15 00:09:54;;;;;;;3.22;1.27;;;13.00;99.90;;;;;;5040059;28;20028;-48
2022/09/15 00:12:19;;;;;;;2.50;1.45;;;13.00;99.90;;;;;;5039173;28;20028;-47
2022/09/15 00:14:45;;;;;;;2.85;1.30;;;13.00;99.90;;;;;;5023013;28;20082;-49
2022/09/15 00:17:10;;;;;;;4.53;1.45;;;13.00;99.90;;;;;;5039389;28;20104;-49
2022/09/15 00:19:36;;;;;;;4.40;2.05;;;13.00;99.90;;;;;;5043834;28;20029;-51
2022/09/15 00:22:01;;;;;;;1.98;1.83;;;13.00;99.90;;;;;;5025810;28;20033;-51
2022/09/15 00:24:27;;;;;;;4.35;1.50;;;13.00;99.90;;;;;;5026570;28;20021;-51
2022/09/15 00:26:53;;;;;;;4.28;2.33;;;13.00;99.90;;;;;;5041247;28;20028;-55
2022/09/15 00:29:18;;;;;;;4.47;1.60;;;13.00;99.90;;;;;;5025506;28;20383;-52
2022/09/15 00:31:44;;;;;;;2.63;1.95;;;12.90;99.90;;;;;;5026451;28;20052;-49
2022/09/15 00:34:12;;;;;;;5.82;2.28;;;12.90;99.90;;;;;;5043297;28;20108;-48
2022/09/15 00:36:37;;;;;;;3.17;1.83;;;12.90;99.90;;;;;;5026659;28;20025;-50
2022/09/15 00:39:04;;;;;;;2.72;2.10;;;12.90;99.90;;;;;;5044145;28;20047;-52
2022/09/15 00:41:29;;;;;;;3.55;1.88;;;12.90;99.90;;;;;;5044131;28;20051;-48
2022/09/15 00:44:04;;;;;;;4.20;2.20;;;12.90;99.90;;;;;;5025754;28;20478;-49
2022/09/15 00:46:37;;;;;;;2.80;2.00;;;12.90;99.90;;;;;;5057297;22;20040;-45
2022/09/15 00:49:14;;;;;;;2.53;1.98;;;12.90;99.90;;;;;;5045167;28;20055;-45
2022/09/15 00:52:00;;;;;;;5.25;2.35;;;12.90;99.90;;;;;;5046703;28;20029;-46
2022/09/15 00:54:37;;;;;;;4.57;2.40;;;12.90;99.90;;;;;;5038203;28;20037;-46
2022/09/15 00:57:09;;;;;;;4.90;2.08;;;12.90;99.90;;;;;;5049201;28;20051;-46
2022/09/15 00:59:37;;;;;;;2.38;2.10;;;12.90;99.90;;;;;;5038895;28;20107;-48
2022/09/15 01:02:14;;;;;;;3.72;1.90;;;12.90;99.90;;;;;;5040241;28;20091;-48
2022/09/15 01:04:40;;;;;;;3.28;2.20;;;12.90;99.90;;;;;;5043392;28;20017;-45
2022/09/15 01:07:10;;;;;;;3.22;2.08;;;12.90;99.90;;;;;;5043487;28;20464;-49
2022/09/15 01:09:43;;;;;;;2.35;1.73;;;12.90;99.90;;;;;;5044555;28;20021;-46
2022/09/15 01:12:08;;;;;;;5.47;2.35;;;12.90;99.90;;;;;;5024342;28;20043;-45
2022/09/15 01:14:34;;;;;;;2.88;1.70;;;12.90;99.90;;;;;;5044378;28;20025;-46
2022/09/15 01:17:09;;;;;;;14.75;2.33;;;12.90;99.90;;;;;;5043101;28;20109;-52
2022/09/15 01:20:12;;;;;;;5.13;2.25;;;12.90;99.90;;;;;;5044106;28;20450;-46
2022/09/15 01:23:08;;;;;;;7.25;2.70;;;12.90;99.90;;;;;;5041997;28;20033;-45
2022/09/15 01:25:51;;;;;;;5.10;2.42;;;12.90;99.90;;;;;;5037743;28;20079;-46
2022/09/15 01:28:34;;;;;;;4.45;2.80;;;12.90;99.90;;;;;;5043881;28;20447;-45
2022/09/15 01:31:20;;;;;;;4.97;2.25;;;12.90;99.90;;;;;;5024142;28;20021;-46
2022/09/15 01:34:01;;;;;;;5.13;2.40;;;12.90;99.90;;;;;;5043323;28;20096;-50
2022/09/15 01:36:53;;;;;;;4.63;2.60;;;12.90;99.90;;;;;;5035774;28;20479;-48
2022/09/15 01:39:24;;;;;;;4.47;2.45;;;12.90;99.90;;;;;;5030073;28;20044;-45
2022/09/15 01:41:57;;;;;;;5.35;3.22;;;12.90;99.90;;;;;;5043245;28;20483;-46
2022/09/15 01:44:27;;;;;;;2.83;2.60;;;12.90;99.90;;;;;;5040194;28;20035;-46
2022/09/15 01:47:02;;;;;;;5.20;3.03;;;12.90;99.90;;;;;;5046401;28;20078;-45
2022/09/15 01:49:35;;;;;;;4.07;2.83;;;12.90;99.90;;;;;;5040325;28;20101;-46
2022/09/15 01:52:01;;;;;;;3.30;2.45;;;12.90;99.90;;;;;;5047370;28;20061;-43
2022/09/15 01:54:29;;;;;;;4.97;2.63;;;13.00;99.90;;;;;;5040266;28;20029;-46
2022/09/15 01:56:55;;;;;;;3.92;3.28;;;13.00;99.90;;;;;;5048021;28;20036;-45
2022/09/15 01:59:21;;;;;;;4.20;3.10;;;12.90;99.90;;;;;;5040086;28;20052;-50
2022/09/15 02:02:04;;;;;;;4.68;2.92;;;12.90;99.90;;;;;;5037741;28;20024;-49
2022/09/15 02:04:38;;;;;;;2.60;2.40;;;12.90;99.90;;;;;;5032008;28;20033;-47
2022/09/15 02:07:43;;;;;;;5.90;2.70;;;12.90;99.90;;;;;;5040168;28;20025;-48
2022/09/15 02:10:47;;;;;;;7.43;2.72;;;13.00;99.90;;;;;;5013761;28;20037;-45
2022/09/15 02:13:15;;;;;;;4.13;2.88;;;13.00;99.90;;;;;;5027962;28;20379;-47
2022/09/15 02:15:47;;;;;;;5.18;3.42;;;13.00;99.90;;;;;;5030089;28;20048;-47
2022/09/15 02:18:24;;;;;;;4.03;2.65;;;13.00;99.90;;;;;;5045211;28;20378;-52
2022/09/15 02:20:58;;;;;;;4.82;2.42;;;13.00;99.90;;;;;;5039889;28;20018;-48
2022/09/15 02:23:31;;;;;;;4.70;3.00;;;13.00;99.90;;;;;;5038502;28;20033;-47
2022/09/15 02:26:03;;;;;;;3.35;2.72;;;13.00;99.90;;;;;;5046276;28;20043;-46
2022/09/15 02:28:33;;;;;;;5.63;3.13;;;13.00;99.90;;;;;;5039878;28;20033;-48
2022/09/15 02:31:01;;;;;;;2.88;2.67;;;13.00;99.90;;;;;;5047196;28;20064;-47
2022/09/15 02:33:33;;;;;;;5.05;2.75;;;13.10;99.90;;;;;;5039171;28;20041;-49
2022/09/15 02:35:59;;;;;;;3.72;2.72;;;13.00;99.90;;;;;;5040684;28;20029;-47
2022/09/15 02:38:29;;;;;;;4.10;3.00;;;13.00;99.90;;;;;;5043649;28;20107;-45
2022/09/15 02:40:55;;;;;;;5.55;2.40;;;13.00;99.90;;;;;;5039478;28;20033;-49
2022/09/15 02:43:22;;;;;;;4.68;2.50;;;13.10;99.90;;;;;;5044749;28;20021;-47
2022/09/15 02:45:48;;;;;;;6.78;2.47;;;13.10;99.90;;;;;;5039388;28;20017;-49
2022/09/15 02:48:14;;;;;;;6.07;3.17;;;13.10;99.90;;;;;;5031510;28;20104;-48
2022/09/15 02:50:40;;;;;;;3.67;2.40;;;13.10;99.90;;;;;;5039027;28;20040;-47
2022/09/15 02:53:06;;;;;;;6.45;3.22;;;13.10;99.90;;;;;;5041072;28;20030;-47
2022/09/15 02:55:32;;;;;;;3.25;2.38;;;13.10;99.90;;;;;;5042985;28;20049;-45
2022/09/15 02:57:58;;;;;;;2.88;2.38;;;13.10;99.90;;;;;;5040412;28;20064;-47
2022/09/15 03:00:25;;;;;;;5.90;3.05;;;13.10;99.90;;;;;;5045172;28;20120;-46
2022/09/15 03:02:52;;;;;;;4.35;2.05;;;13.10;99.90;;;;;;5035993;28;20022;-48
2022/09/15 03:05:21;;;;;;;4.65;2.00;;;13.00;99.90;;;;;;5046490;28;20017;-46
2022/09/15 03:07:47;;;;;;;7.03;2.75;;;13.10;99.90;;;;;;5038742;28;20060;-46
2022/09/15 03:10:13;;;;;;;5.05;2.50;;;13.10;99.90;;;;;;5041982;28;20025;-46
2022/09/15 03:12:41;;;;;;;4.07;2.30;;;13.00;99.90;;;;;;5041491;28;20033;-47
2022/09/15 03:15:08;;;;;;;3.58;2.38;;;13.10;99.90;;;;;;5023145;28;20391;-46
2022/09/15 03:17:35;;;;;;;2.35;2.00;;;13.00;99.90;;;;;;5042944;28;20036;-46
2022/09/15 03:20:02;;;;;;;4.20;2.20;;;13.10;99.90;;;;;;5039963;28;20021;-48
2022/09/15 03:22:28;;;;;;;3.97;2.00;;;13.00;99.90;;;;;;5041526;28;20391;-46
2022/09/15 03:24:54;;;;;;;7.00;2.95;;;13.00;99.90;;;;;;5039141;28;20021;-47
2022/09/15 03:27:19;;;;;;;2.33;1.70;;;13.00;99.90;;;;;;5041808;28;20021;-47
2022/09/15 03:29:44;;;;;;;2.80;1.70;;;13.10;99.90;;;;;;5041610;28;20056;-49
2022/09/15 03:32:10;;;;;;;4.63;2.60;;;13.10;99.90;;;;;;5040882;28;20100;-46
2022/09/15 03:34:36;;;;;;;4.72;2.80;;;13.10;99.90;;;;;;5041215;28;20043;-48
2022/09/15 03:37:01;;;;;;;4.35;1.98;;;13.10;99.90;;;;;;5040124;28;20021;-46
2022/09/15 03:39:27;;;;;;;4.82;1.90;;;13.10;99.90;;;;;;5041813;28;20056;-46
2022/09/15 03:41:52;;;;;;;2.30;1.88;;;13.10;99.90;;;;;;5039653;28;20029;-48
2022/09/15 03:44:18;;;;;;;3.63;2.00;;;13.10;99.90;;;;;;5041400;28;20025;-48
2022/09/15 03:46:43;;;;;;;1.50;1.40;;;13.10;99.90;;;;;;5041274;28;20037;-46
2022/09/15 03:49:09;;;;;;;3.25;1.55;;;13.10;99.90;;;;;;5040854;28;20037;-49
2022/09/15 03:51:35;;;;;;;4.55;1.67;;;13.00;99.90;;;;;;5040318;28;20065;-48
2022/09/15 03:54:00;;;;;;;3.13;1.90;;;13.00;99.90;;;;;;5039000;28;20097;-46
2022/09/15 03:56:31;;;;;;;1.83;1.73;;;12.90;99.90;;;;;;5041320;28;20028;-47
2022/09/15 03:58:58;;;;;;;2.47;2.00;;;13.00;99.90;;;;;;5040049;28;20387;-47
2022/09/15 04:01:24;;;;;;;3.58;1.50;;;13.00;99.90;;;;;;5040925;28;20052;-46
2022/09/15 04:03:50;;;;;;;3.05;1.85;;;13.00;99.90;;;;;;5040871;28;20030;-48
2022/09/15 04:06:17;;;;;;;4.95;1.92;;;13.00;99.90;;;;;;5037511;28;20029;-46
2022/09/15 04:08:43;;;;;;;5.13;1.85;;;13.00;99.90;;;;;;5036164;28;20123;-46
2022/09/15 04:11:10;;;;;;;4.28;2.38;;;13.00;99.90;;;;;;5040605;28;20025;-47
2022/09/15 04:13:38;;;;;;;5.20;2.15;;;13.00;99.90;;;;;;5041710;28;20102;-47
2022/09/15 04:16:08;;;;;;;4.10;1.98;;;13.00;99.90;;;;;;5039587;28;20025;-49
2022/09/15 04:18:34;;;;;;;4.97;1.90;;;13.00;99.90;;;;;;5040818;28;20487;-48
2022/09/15 04:21:01;;;;;;;2.28;1.52;;;13.00;99.90;;;;;;5040392;28;20295;-52
2022/09/15 04:23:27;;;;;;;4.10;1.98;;;13.00;99.90;;;;;;5040759;28;20028;-50
2022/09/15 04:26:01;;;;;;;2.65;1.85;;;13.00;99.90;;;;;;5040481;28;20025;-49
2022/09/15 04:28:28;;;;;;;1.63;1.42;;;13.00;99.90;;;;;;5042011;28;20104;-48
2022/09/15 04:31:08;;;;;;;4.05;1.45;;;13.00;99.90;;;;;;5040393;28;20036;-47
2022/09/15 04:33:34;;;;;;;4.63;2.15;;;13.00;99.90;;;;;;5037774;28;20109;-46
2022/09/15 04:36:05;;;;;;;5.40;2.47;;;12.90;99.90;;;;;;5037488;28;20521;-47
2022/09/15 04:38:31;;;;;;;5.50;2.67;;;12.90;99.90;;;;;;5038490;28;20040;-45
2022/09/15 04:40:57;;;;;;;6.20;2.03;;;12.90;99.90;;;;;;5044178;28;20096;-47
2022/09/15 04:43:24;;;;;;;4.95;1.80;;;12.90;99.90;;;;;;5037111;28;20036;-46
2022/09/15 04:45:50;;;;;;;3.67;1.67;;;12.90;99.90;;;;;;5045356;28;20017;-46
2022/09/15 04:48:16;;;;;;;2.85;1.33;;;12.90;99.90;;;;;;5037588;28;20079;-46
2022/09/15 04:50:41;;;;;;;4.93;1.45;;;12.90;99.90;;;;;;5019837;28;20030;-46
2022/09/15 04:53:07;;;;;;;2.17;1.33;;;12.90;99.90;;;;;;5025361;28;20043;-46
2022/09/15 04:55:33;;;;;;;2.20;1.63;;;12.90;99.90;;;;;;5037450;28;20029;-47
2022/09/15 04:58:01;;;;;;;5.47;1.55;;;12.90;99.90;;;;;;5026522;28;20057;-49
2022/09/15 05:00:30;;;;;;;2.35;1.40;;;12.90;99.90;;;;;;5037510;28;20479;-51
2022/09/15 05:02:57;;;;;;;5.47;1.42;;;12.90;99.90;;;;;;5045163;28;20025;-46
2022/09/15 05:05:24;;;;;;;1.88;1.48;;;12.90;99.90;;;;;;5040622;28;20545;-46
2022/09/15 05:07:50;;;;;;;5.82;1.75;;;12.90;99.90;;;;;;5023268;28;20032;-46
2022/09/15 05:10:16;;;;;;;2.53;1.92;;;12.90;99.90;;;;;;5046873;28;20018;-54
2022/09/15 05:12:41;;;;;;;4.68;1.63;;;12.90;99.90;;;;;;5040768;28;20514;-46
2022/09/15 05:15:07;;;;;;;4.63;1.50;;;12.90;99.90;;;;;;5047745;28;20037;-50
2022/09/15 05:17:33;;;;;;;4.05;1.35;;;12.90;99.90;;;;;;5040468;28;20046;-50
2022/09/15 05:19:59;;;;;;;7.65;1.58;;;12.90;99.90;;;;;;5048830;28;20021;-46
2022/09/15 05:22:26;;;;;;;3.83;1.40;;;12.90;99.90;;;;;;5040882;28;20636;-50
2022/09/15 05:24:51;;;;;;;4.05;1.92;;;12.90;99.90;;;;;;5041086;28;20017;-49
2022/09/15 05:27:17;;;;;;;2.30;1.30;;;12.90;99.90;;;;;;5044178;28;20025;-46
2022/09/15 05:29:43;;;;;;;5.70;1.60;;;12.90;99.90;;;;;;5044288;28;20024;-47
2022/09/15 05:32:08;;;;;;;1.27;1.00;;;12.90;99.90;;;;;;5042999;28;20037;-46
2022/09/15 05:34:34;;;;;;;4.97;1.52;;;12.90;99.90;;;;;;5043585;28;20100;-46
2022/09/15 05:37:00;;;;;;;4.13;1.83;;;12.90;99.90;;;;;;5041866;28;20075;-47
2022/09/15 05:39:26;;;;;;;5.28;1.67;;;12.90;99.90;;;;;;5043879;28;20025;-51
2022/09/15 05:41:51;;;;;;;2.47;1.20;;;12.90;99.90;;;;;;5042038;28;20030;-46
2022/09/15 05:44:17;;;;;;;3.97;1.52;;;12.90;99.90;;;;;;5043914;28;20023;-48
2022/09/15 05:46:43;;;;;;;3.90;1.55;;;12.80;99.90;;;;;;5026113;28;20030;-47
2022/09/15 05:49:10;;;;;;;5.40;1.33;;;12.90;99.90;;;;;;5043037;28;20021;-48
2022/09/15 05:51:36;;;;;;;4.40;1.02;;;12.90;99.90;;;;;;5043012;28;20017;-47
2022/09/15 05:54:01;;;;;;;4.10;1.42;;;12.90;99.90;;;;;;5042003;28;20021;-46
2022/09/15 05:56:27;;;;;;;5.43;1.40;;;12.90;99.90;;;;;;5043871;28;20029;-47
2022/09/15 05:58:52;;;;;;;5.57;1.40;;;12.90;99.90;;;;;;5042362;28;20391;-50
2022/09/15 06:01:23;;;;;;;8.05;1.90;;;12.90;99.90;;;;;;5043302;28;20464;-48
2022/09/15 06:03:49;;;;;;;5.68;1.20;;;12.90;99.90;;;;;;5042749;28;20025;-49
2022/09/15 06:06:15;;;;;;;4.25;1.30;;;12.90;99.90;;;;;;5043039;28;20433;-47
2022/09/15 06:08:44;;;;;;;5.38;1.95;;;12.90;99.90;;;;;;5042111;28;20024;-51
2022/09/15 06:11:15;;;;;;;5.30;1.48;;;12.90;99.90;;;;;;5042329;28;20036;-50
2022/09/15 06:13:41;;;;;;;4.05;1.38;;;12.90;99.90;;;;;;5042319;28;20550;-47
2022/09/15 06:16:09;;;;;;;3.17;1.38;;;13.00;99.90;;;;;;5040996;28;20105;-47
2022/09/15 06:18:36;;;;;;;6.15;1.30;;;12.90;99.90;;;;;;5043094;28;20487;-47
2022/09/15 06:21:06;;;;;;;5.10;1.80;;;13.00;99.90;;;;;;5042594;28;20388;-49
2022/09/15 06:23:31;;;;;;;2.50;1.63;;;13.00;99.90;;;;;;5042569;28;20110;-46
2022/09/15 06:26:04;;;;;;;7.55;1.42;;;13.10;99.90;;;;;;5041799;28;20472;-49
2022/09/15 06:28:29;;;;;;;4.82;1.33;;;13.10;99.90;;;;;;5038676;28;20028;-48
2022/09/15 06:30:55;;;;;;;2.33;1.17;;;13.10;99.90;;;;;;5042185;28;20095;-46
2022/09/15 06:33:20;;;;;;;6.15;1.05;;;13.20;99.90;;;;;;5039525;28;20063;-46
2022/09/15 06:35:46;;;;;;;5.32;1.67;;;13.20;99.90;;;;;;5044971;28;20099;-48
2022/09/15 06:38:11;;;;;;;2.00;1.23;;;13.20;99.90;;;;;;5039400;28;20040;-47
2022/09/15 06:40:37;;;;;;;2.35;1.30;;;13.30;99.90;;;;;;5026917;28;20020;-47
2022/09/15 06:43:02;;;;;;;6.53;1.80;;;13.30;99.90;;;;;;5040431;28;20064;-46
2022/09/15 06:45:29;;;;;;;3.72;1.00;;;13.30;99.90;;;;;;5037811;28;20017;-47
2022/09/15 06:47:54;;;;;;;3.30;1.42;;;13.30;99.90;;;;;;5096468;22;20120;-46
2022/09/15 06:50:20;;;;;;;4.68;1.20;;;13.30;99.90;;;;;;5040628;28;20017;-46
2022/09/15 06:52:46;;;;;;;2.22;0.80;;;13.40;99.90;;;;;;5043765;28;20029;-47
2022/09/15 06:55:11;;;;;;;3.60;1.35;;;13.40;99.90;;;;;;5038914;28;20119;-47
2022/09/15 06:57:37;;;;;;;5.68;1.17;;;13.40;99.90;;;;;;5044558;28;20490;-46
2022/09/15 07:00:05;;;;;;;2.90;1.30;;;13.40;99.90;;;;;;5040527;28;20029;-50
2022/09/15 07:02:30;;;;;;;3.95;1.15;;;13.40;99.90;;;;;;5037806;28;20021;-47
2022/09/15 07:04:56;;;;;;;4.03;1.38;;;13.40;99.90;;;;;;5041167;28;20082;-46
2022/09/15 07:07:21;;;;;;;4.57;1.80;;;13.40;99.90;;;;;;5038412;28;20009;-46
2022/09/15 07:09:47;;;;;;;6.03;1.60;;;13.50;99.90;;;;;;5044442;28;20510;-47
2022/09/15 07:12:13;;;;;;;8.68;1.30;;;13.60;99.90;;;;;;5020223;28;20102;-47
2022/09/15 07:14:38;;;;;;;6.03;1.55;;;13.60;99.90;;;;;;5043815;28;20060;-46
2022/09/15 07:17:04;;;;;;;4.88;0.93;;;13.80;99.90;;;;;;5021651;28;20327;-47
2022/09/15 07:19:29;;;;;;;4.82;1.33;;;13.90;99.90;;;;;;5042997;28;20074;-49
2022/09/15 07:21:55;;;;;;;4.18;1.27;;;14.00;99.90;;;;;;5040229;28;20045;-48
2022/09/15 07:24:20;;;;;;;9.07;1.65;;;14.10;99.90;;;;;;5020563;28;20028;-48
2022/09/15 07:26:46;;;;;;;5.25;1.05;;;14.20;99.90;;;;;;5034156;28;20030;-47
2022/09/15 07:29:11;;;;;;;6.50;1.48;;;14.30;99.90;;;;;;5027736;28;20024;-47
2022/09/15 07:31:37;;;;;;;7.43;2.05;;;14.30;99.90;;;;;;5037635;28;20025;-45
2022/09/15 07:34:04;;;;;;;5.22;1.70;;;14.40;99.90;;;;;;5039874;28;20032;-46
2022/09/15 07:36:30;;;;;;;5.05;0.77;;;14.50;99.90;;;;;;5041546;28;20060;-49
2022/09/15 07:38:56;;;;;;;3.35;1.15;;;14.60;99.90;;;;;;5039156;28;20583;-45
2022/09/15 07:41:25;;;;;;;4.80;1.27;;;14.80;99.90;;;;;;5043351;28;20025;-47
2022/09/15 07:43:52;;;;;;;5.22;1.50;;;14.90;99.90;;;;;;5038290;28;20029;-45
2022/09/15 07:46:20;;;;;;;2.40;0.80;;;15.00;99.90;;;;;;5044885;28;20096;-45
2022/09/15 07:48:47;;;;;;;4.30;1.50;;;15.10;99.90;;;;;;5039787;28;20029;-48
2022/09/15 07:51:14;;;;;;;5.65;1.17;;;15.30;99.90;;;;;;5040965;28;20467;-45
2022/09/15 07:53:40;;;;;;;2.38;0.75;;;15.40;99.90;;;;;;5040277;28;20075;-48
2022/09/15 07:56:06;;;;;;;3.00;1.17;;;15.40;99.90;;;;;;5040052;28;20044;-47
2022/09/15 07:58:32;;;;;;;9.35;0.88;;;15.50;99.90;;;;;;5024132;28;20034;-45
2022/09/15 08:01:03;;;;;;;2.58;1.05;;;15.60;99.90;;;;;;5038842;28;20101;-46
2022/09/15 08:03:29;;;;;;;3.95;1.23;;;15.80;99.90;;;;;;5042820;28;20063;-46
2022/09/15 08:05:59;;;;;;;4.97;0.82;;;15.90;99.90;;;;;;5004078;28;20045;-45
2022/09/15 08:08:24;;;;;;;5.05;1.17;;;16.00;99.90;;;;;;5041131;28;20024;-45
2022/09/15 08:10:50;;;;;;;3.70;1.05;;;16.00;99.90;;;;;;5039030;28;20021;-47
2022/09/15 08:13:16;;;;;;;2.90;0.90;;;16.20;99.90;;;;;;5041045;28;20102;-48
2022/09/15 08:15:42;;;;;;;3.22;1.08;;;16.20;99.90;;;;;;5039853;28;20475;-49
2022/09/15 08:18:08;;;;;;;6.07;1.48;;;16.10;99.90;;;;;;5044403;28;20029;-46
2022/09/15 08:20:36;;;;;;;3.50;1.67;;;16.10;99.90;;;;;;5036368;28;20528;-44
2022/09/15 08:23:02;;;;;;;1.85;0.90;;;16.00;99.90;;;;;;5019662;28;20075;-45
2022/09/15 08:25:28;;;;;;;8.05;0.98;;;16.00;99.90;;;;;;5038352;28;20479;-45
2022/09/15 08:27:55;;;;;;;3.47;1.17;;;16.00;99.90;;;;;;5043575;28;20024;-47
2022/09/15 08:30:21;;;;;;;1.50;0.80;;;16.10;99.90;;;;;;5037102;28;20018;-44
2022/09/15 08:32:47;;;;;;;1.42;0.75;;;16.20;99.90;;;;;;5026463;28;20118;-46
2022/09/15 08:35:13;;;;;;;8.18;1.45;;;16.40;99.90;;;;;;5037411;28;20030;-47
2022/09/15 08:37:39;;;;;;;4.28;1.35;;;16.50;99.90;;;;;;5044176;28;20040;-45
2022/09/15 08:40:05;;;;;;;3.25;1.05;;;16.50;99.90;;;;;;5024189;28;20021;-47
2022/09/15 08:42:32;;;;;;;3.92;0.95;;;16.50;99.90;;;;;;5040767;28;20029;-44
2022/09/15 08:45:26;;;;;;;6.43;1.17;;;16.50;99.90;;;;;;5029507;28;20109;-44
2022/09/15 08:47:58;;;;;;;4.38;1.23;;;16.50;99.90;;;;;;5038387;28;20376;-45
2022/09/15 08:50:34;;;;;;;5.50;1.25;;;16.60;99.90;;;;;;5047326;28;20013;-46
2022/09/15 08:53:11;;;;;;;3.85;0.90;;;16.60;99.90;;;;;;5042544;28;20026;-46
2022/09/15 08:55:53;;;;;;;5.68;1.23;;;16.60;99.90;;;;;;5026263;28;20048;-44
2022/09/15 08:58:28;;;;;;;3.70;1.23;;;16.70;99.90;;;;;;5015911;28;20116;-45
2022/09/15 09:01:15;;;;;;;3.92;0.88;;;16.70;99.90;;;;;;5043214;28;20462;-48
2022/09/15 09:03:43;;;;;;;2.47;0.68;;;16.80;99.90;;;;;;5044031;28;20029;-44
2022/09/15 09:06:32;;;;;;;3.28;1.27;;;16.70;99.90;;;;;;5043464;28;20021;-44
2022/09/15 09:09:23;;;;;;;3.13;0.65;;;16.70;99.90;;;;;;5043236;28;20032;-48
2022/09/15 09:12:26;;;;;;;5.25;0.95;;;16.70;99.90;;;;;;5037267;28;20424;-45
2022/09/15 09:15:20;;;;;;;4.55;0.70;;;16.80;99.90;;;;;;5040155;28;20066;-44
2022/09/15 09:18:23;;;;;;;2.78;1.20;;;16.70;99.90;;;;;;5024487;28;20029;-46
2022/09/15 09:21:04;;;;;;;4.28;1.33;;;16.60;99.90;;;;;;5042273;28;20533;-45
2022/09/15 09:23:47;;;;;;;3.97;1.50;;;16.50;99.90;;;;;;5040658;28;20040;-45
2022/09/15 09:26:14;;;;;;;4.20;0.70;;;16.40;99.90;;;;;;5030972;28;20017;-47
2022/09/15 09:28:57;;;;;;;3.50;1.30;;;16.40;99.90;;;;;;5040633;28;20550;-44
2022/09/15 09:31:26;;;;;;;3.75;0.77;;;16.40;99.90;;;;;;5034337;28;20101;-47
2022/09/15 09:34:16;;;;;;;2.25;1.13;;;16.40;99.90;;;;;;5037870;28;20537;-47
2022/09/15 09:36:42;;;;;;;2.85;1.15;;;16.50;99.90;;;;;;5026694;28;20048;-47
2022/09/15 09:39:14;;;;;;;2.85;0.90;;;16.60;99.90;;;;;;5042939;28;20029;-47
2022/09/15 09:41:41;;;;;;;1.88;1.10;;;16.60;99.90;;;;;;5025675;28;20036;-45
2022/09/15 09:44:12;;;;;;;1.77;0.68;;;16.50;99.90;;;;;;5040378;28;20013;-46
2022/09/15 09:46:38;;;;;;;3.55;1.02;;;16.30;99.90;;;;;;5022691;28;20032;-45
2022/09/15 09:49:15;;;;;;;3.33;1.00;;;16.20;99.90;;;;;;5024669;28;20033;-46
2022/09/15 09:51:55;;;;;;;1.98;0.90;;;16.20;99.90;;;;;;5025649;28;20025;-44
2022/09/15 09:54:23;;;;;;;3.20;0.73;;;16.10;99.90;;;;;;5017330;28;20071;-47
2022/09/15 09:56:51;;;;;;;3.35;0.77;;;16.10;99.90;;;;;;5043869;28;20106;-47
2022/09/15 09:59:36;;;;;;;3.38;1.30;;;16.10;99.90;;;;;;5042355;28;20017;-44
2022/09/15 10:02:10;;;;;;;2.45;0.93;;;16.20;99.90;;;;;;5041391;28;20108;-46
2022/09/15 10:04:37;;;;;;;3.63;0.70;;;16.30;99.90;;;;;;5027809;28;20044;-48
2022/09/15 10:07:03;;;;;;;2.60;0.82;;;16.40;99.90;;;;;;5041133;28;20023;-44
2022/09/15 10:09:29;;;;;;;2.40;1.15;;;16.40;99.90;;;;;;5021799;28;20477;-44
2022/09/15 10:11:57;;;;;;;1.17;0.68;;;16.50;99.90;;;;;;5045105;28;20021;-48
2022/09/15 10:14:37;;;;;;;4.35;1.25;;;16.60;99.90;;;;;;5039777;28;20431;-48
2022/09/15 10:17:15;;;;;;;4.68;1.10;;;16.70;99.90;;;;;;5046281;28;20071;-45
2022/09/15 10:19:53;;;;;;;2.65;0.55;;;16.70;99.90;;;;;;5038727;28;20031;-49
2022/09/15 10:22:40;;;;;;;4.43;0.95;;;16.80;99.90;;;;;;5018507;28;20098;-45
2022/09/15 10:25:21;;;;;;;4.07;0.95;;;16.90;99.90;;;;;;5039288;28;20026;-46
2022/09/15 10:28:07;;;;;;;2.97;0.77;;;17.00;99.90;;;;;;5043037;28;20060;-48
2022/09/15 10:30:34;;;;;;;2.38;1.05;;;17.20;99.90;;;;;;5039419;28;20025;-49
2022/09/15 10:33:43;;;;;;;3.08;0.88;;;17.20;99.90;;;;;;5023280;28;20021;-46
2022/09/15 10:36:16;;;;;;;3.75;1.08;;;17.30;99.90;;;;;;5042373;28;20041;-47
2022/09/15 10:38:57;;;;;;;3.53;1.10;;;17.20;99.90;;;;;;5021229;28;20021;-45
2022/09/15 10:41:30;;;;;;;1.67;0.68;;;17.20;99.90;;;;;;5029724;28;20108;-50
2022/09/15 10:44:11;;;;;;;2.60;0.60;;;17.40;99.90;;;;;;5040764;28;20048;-45
2022/09/15 10:46:48;;;;;;;2.08;0.77;;;17.30;99.90;;;;;;5042699;28;20546;-45
2022/09/15 10:49:28;;;;;;;1.23;0.57;;;17.40;99.90;;;;;;5042197;28;20025;-47
2022/09/15 10:51:56;;;;;;;2.83;0.70;;;17.40;99.90;;;;;;5041166;28;20499;-45
2022/09/15 10:55:00;;;;;;;4.80;0.95;;;17.40;99.90;;;;;;5040994;28;20048;-46
2022/09/15 10:57:58;;;;;;;7.32;1.00;;;17.40;99.90;;;;;;5037178;28;20048;-45
2022/09/15 11:00:31;;;;;;;3.28;0.70;;;17.40;99.90;;;;;;5013572;28;20034;-48
2022/09/15 11:03:18;;;;;;;3.08;1.02;;;17.40;99.90;;;;;;5039204;28;20036;-46
2022/09/15 11:06:03;;;;;;;3.13;0.60;;;17.40;99.90;;;;;;5041783;28;20013;-49
2022/09/15 11:08:40;;;;;;;3.83;1.17;;;17.50;99.90;;;;;;5031603;28;20036;-45
2022/09/15 11:11:26;;;;;;;4.60;1.05;;;17.50;99.90;;;;;;5039479;28;20029;-45
2022/09/15 11:14:25;;;;;;;3.50;0.55;;;17.40;99.90;;;;;;5041311;28;20379;-47
2022/09/15 11:17:33;;;;;;;6.82;1.17;;;17.20;99.90;;;;;;5041548;28;20120;-45
2022/09/15 11:20:26;;;;;;;4.82;1.10;;;17.00;99.90;;;;;;5037407;28;20033;-50
2022/09/15 11:23:20;;;;;;;3.88;0.85;;;16.70;99.90;;;;;;5040379;28;20431;-46
2022/09/15 11:25:51;;;;;;;2.50;0.77;;;16.40;99.90;;;;;;5018970;28;20388;-47
2022/09/15 11:28:42;;;;;;;2.95;1.20;;;16.30;99.90;;;;;;5014194;28;20336;-47
2022/09/15 11:31:17;;;;;;;4.05;0.95;;;16.20;99.90;;;;;;5025369;28;20029;-46
2022/09/15 11:33:56;;;;;;;6.65;1.38;;;16.10;99.90;;;;;;5037631;28;20032;-46
2022/09/15 11:36:36;;;;;;;2.45;0.80;;;16.10;99.90;;;;;;5013229;28;20456;-47
2022/09/15 11:39:17;;;;;;;2.67;1.02;;;16.20;99.90;;;;;;5020263;28;20160;-47
2022/09/15 11:41:55;;;;;;;4.32;1.00;;;16.20;99.90;;;;;;5022549;28;20458;-46
2022/09/15 11:44:38;;;;;;;2.63;0.57;;;16.20;99.90;;;;;;5029584;28;20025;-48
2022/09/15 11:47:04;;;;;;;1.88;0.70;;;16.20;99.90;;;;;;5022422;28;20096;-46
2022/09/15 11:49:56;;;;;;;2.83;0.60;;;16.30;99.90;;;;;;5041163;28;20115;-46
2022/09/15 11:52:38;;;;;;;1.85;0.55;;;16.30;99.90;;;;;;5035976;28;20017;-49
2022/09/15 11:55:31;;;;;;;3.58;1.00;;;16.40;99.90;;;;;;5024959;28;20092;-47
2022/09/15 11:58:27;;;;;;;1.67;0.68;;;16.60;99.90;;;;;;5035857;28;20388;-48
2022/09/15 12:01:07;;;;;;;3.17;0.95;;;16.60;99.90;;;;;;5039266;28;20044;-46
2022/09/15 12:03:52;;;;;;;2.72;0.82;;;16.80;99.90;;;;;;5040518;28;20033;-47
2022/09/15 12:06:45;;;;;;;4.80;1.33;;;16.80;99.90;;;;;;5023091;28;20086;-45
2022/09/15 12:09:13;;;;;;;5.75;1.05;;;16.80;99.90;;;;;;5038095;28;20341;-47
2022/09/15 12:11:45;;;;;;;3.80;1.10;;;16.90;99.90;;;;;;5024247;28;20025;-44
2022/09/15 12:14:27;;;;;;;3.22;1.20;;;16.90;99.90;;;;;;5039857;28;20495;-44
2022/09/15 12:16:54;;;;;;;3.30;1.13;;;17.00;99.90;;;;;;5048414;28;20029;-45
2022/09/15 12:19:35;;;;;;;1.33;0.60;;;17.20;99.90;;;;;;5023254;28;20541;-49
2022/09/15 12:22:30;;;;;;;3.85;0.80;;;17.30;99.90;;;;;;5048930;28;20021;-46
2022/09/15 12:25:09;;;;;;;4.43;0.77;;;17.40;99.90;;;;;;5019944;28;20036;-49
2022/09/15 12:27:35;;;;;;;4.65;1.38;;;17.50;99.90;;;;;;5045081;28;20108;-47
2022/09/15 12:30:01;;;;;;;3.25;0.85;;;17.60;99.90;;;;;;5043743;28;20152;-44
2022/09/15 12:32:28;;;;;;;4.10;1.00;;;17.70;99.90;;;;;;5044661;28;20036;-48
2022/09/15 12:34:58;;;;;;;6.03;1.00;;;17.70;99.90;;;;;;5044547;28;20032;-48
2022/09/15 12:37:28;;;;;;;2.35;0.70;;;17.80;99.90;;;;;;5044761;28;20025;-47
2022/09/15 12:39:54;;;;;;;2.88;0.90;;;17.90;99.90;;;;;;5026063;28;20024;-45
2022/09/15 12:42:30;;;;;;;2.13;1.15;;;17.90;99.90;;;;;;5034840;28;20021;-46
2022/09/15 12:45:26;;;;;;;2.38;0.75;;;17.60;99.90;;;;;;5043859;28;20066;-46
2022/09/15 12:48:00;;;;;;;2.58;1.08;;;17.30;98.90;;;;;;5027484;28;20040;-48
2022/09/15 12:50:32;;;;;;;2.40;0.52;;;17.00;99.90;;;;;;5049402;23;20060;-55
2022/09/15 12:53:01;;;;;;;1.70;0.40;;;16.70;99.90;;;;;;5031562;28;20758;-55
2022/09/15 12:55:31;;;;;;;2.55;0.90;;;16.60;99.90;;;;;;5032773;28;20037;-54
2022/09/15 12:58:09;;;;;;;2.40;0.60;;;16.50;99.90;;;;;;5033061;28;20033;-56
2022/09/15 13:00:40;;;;;;;2.10;0.80;;;16.50;99.90;;;;;;5028903;28;20069;-56
2022/09/15 13:03:36;;;;;;;1.80;0.68;;;16.50;99.90;;;;;;5024341;28;20420;-54
2022/09/15 13:06:30;;;;;;;5.33;0.80;;;16.50;99.90;;;;;;5027065;28;20048;-52
2022/09/15 13:09:04;;;;;;;2.88;1.02;;;16.40;99.90;;;;;;5025643;28;20396;-57
2022/09/15 13:11:33;;;;;;;8.30;1.35;;;16.40;99.90;;;;;;5023476;28;20021;-57